sensor_id;sensor_type;location;lat;lon;timestamp;P1;durP1;ratioP1;P2;durP2;ratioP2
44893;SDS011;30625;52.206;21.030;2023-12-20T00:00:22;20.75;;;10.88;;
44893;SDS011;30625;52.206;21.030;2023-12-20T00:02:48;23.63;;;10.60;;
44893;SDS011;30625;52.206;21.030;2023-12-20T00:05:14;17.98;;;9.90;;
44893;SDS011;30625;52.206;21.030;2023-12-20T00:07:42;15.80;;;11.38;;
44893;SDS011;30625;52.206;21.030;2023-12-20T00:10:08;19.80;;;10.77;;
44893;SDS011;30625;52.206;21.030;2023-12-20T00:12:34;18.63;;;10.73;;
44893;SDS011;30625;52.206;21.030;2023-12-20T00:15:00;16.70;;;10.27;;
44893;SDS011;30625;52.206;21.030;2023-12-20T00:17:26;18.25;;;11.18;;
44893;SDS011;30625;52.206;21.030;2023-12-20T00:19:53;22.98;;;11.50;;
44893;SDS011;30625;52.206;21.030;2023-12-20T00:22:18;16.75;;;10.50;;
44893;SDS011;30625;52.206;21.030;2023-12-20T00:24:44;16.92;;;11.30;;
44893;SDS011;30625;52.206;21.030;2023-12-20T00:27:10;17.17;;;11.63;;
44893;SDS011;30625;52.206;21.030;2023-12-20T00:29:37;19.88;;;11.48;;
44893;SDS011;30625;52.206;21.030;2023-12-20T00:32:03;19.30;;;11.10;;
44893;SDS011;30625;52.206;21.030;2023-12-20T00:34:29;15.75;;;11.07;;
44893;SDS011;30625;52.206;21.030;2023-12-20T00:36:55;17.08;;;9.45;;
44893;SDS011;30625;52.206;21.030;2023-12-20T00:39:20;24.23;;;10.32;;
44893;SDS011;30625;52.206;21.030;2023-12-20T00:41:46;13.75;;;8.43;;
44893;SDS011;30625;52.206;21.030;2023-12-20T00:44:12;15.10;;;9.80;;
44893;SDS011;30625;52.206;21.030;2023-12-20T00:46:41;15.25;;;9.75;;
44893;SDS011;30625;52.206;21.030;2023-12-20T00:49:08;26.38;;;10.00;;
44893;SDS011;30625;52.206;21.030;2023-12-20T00:51:33;16.55;;;10.43;;
44893;SDS011;30625;52.206;21.030;2023-12-20T00:53:59;17.50;;;10.77;;
44893;SDS011;30625;52.206;21.030;2023-12-20T00:56:25;16.67;;;9.25;;
44893;SDS011;30625;52.206;21.030;2023-12-20T00:58:50;18.77;;;10.23;;
44893;SDS011;30625;52.206;21.030;2023-12-20T01:01:16;14.25;;;9.98;;
44893;SDS011;30625;52.206;21.030;2023-12-20T01:03:45;15.23;;;9.23;;
44893;SDS011;30625;52.206;21.030;2023-12-20T01:06:11;12.40;;;8.15;;
44893;SDS011;30625;52.206;21.030;2023-12-20T01:08:39;14.65;;;9.32;;
44893;SDS011;30625;52.206;21.030;2023-12-20T01:13:31;17.45;;;10.48;;
44893;SDS011;30625;52.206;21.030;2023-12-20T01:15:56;14.80;;;9.02;;
44893;SDS011;30625;52.206;21.030;2023-12-20T01:18:26;15.60;;;9.00;;
44893;SDS011;30625;52.206;21.030;2023-12-20T01:20:52;15.45;;;9.80;;
44893;SDS011;30625;52.206;21.030;2023-12-20T01:23:18;31.15;;;10.05;;
44893;SDS011;30625;52.206;21.030;2023-12-20T01:25:43;17.70;;;9.07;;
44893;SDS011;30625;52.206;21.030;2023-12-20T01:28:09;19.00;;;10.10;;
44893;SDS011;30625;52.206;21.030;2023-12-20T01:30:34;17.77;;;9.55;;
44893;SDS011;30625;52.206;21.030;2023-12-20T01:33:00;17.33;;;10.05;;
44893;SDS011;30625;52.206;21.030;2023-12-20T01:35:26;15.50;;;10.30;;
44893;SDS011;30625;52.206;21.030;2023-12-20T01:37:52;15.38;;;9.48;;
44893;SDS011;30625;52.206;21.030;2023-12-20T01:40:21;15.80;;;10.05;;
44893;SDS011;30625;52.206;21.030;2023-12-20T01:45:28;14.88;;;9.63;;
44893;SDS011;30625;52.206;21.030;2023-12-20T01:47:57;14.27;;;8.50;;
44893;SDS011;30625;52.206;21.030;2023-12-20T01:50:24;17.20;;;10.13;;
44893;SDS011;30625;52.206;21.030;2023-12-20T01:52:50;14.70;;;8.98;;
44893;SDS011;30625;52.206;21.030;2023-12-20T01:55:19;17.83;;;10.93;;
44893;SDS011;30625;52.206;21.030;2023-12-20T01:57:46;14.45;;;8.43;;
44893;SDS011;30625;52.206;21.030;2023-12-20T02:00:12;17.63;;;9.93;;
44893;SDS011;30625;52.206;21.030;2023-12-20T02:02:39;14.02;;;9.23;;
44893;SDS011;30625;52.206;21.030;2023-12-20T02:05:07;14.10;;;8.80;;
44893;SDS011;30625;52.206;21.030;2023-12-20T02:07:34;14.68;;;9.75;;
44893;SDS011;30625;52.206;21.030;2023-12-20T02:10:00;17.70;;;10.68;;
44893;SDS011;30625;52.206;21.030;2023-12-20T02:12:26;13.85;;;8.07;;
44893;SDS011;30625;52.206;21.030;2023-12-20T02:14:52;12.55;;;8.25;;
44893;SDS011;30625;52.206;21.030;2023-12-20T02:17:19;17.42;;;9.45;;
44893;SDS011;30625;52.206;21.030;2023-12-20T02:19:45;13.05;;;8.90;;
44893;SDS011;30625;52.206;21.030;2023-12-20T02:22:11;16.80;;;9.00;;
44893;SDS011;30625;52.206;21.030;2023-12-20T02:24:36;16.70;;;9.90;;
44893;SDS011;30625;52.206;21.030;2023-12-20T02:27:03;16.05;;;9.25;;
44893;SDS011;30625;52.206;21.030;2023-12-20T02:29:40;16.27;;;9.38;;
44893;SDS011;30625;52.206;21.030;2023-12-20T02:32:06;16.52;;;8.35;;
44893;SDS011;30625;52.206;21.030;2023-12-20T02:34:33;13.73;;;8.40;;
44893;SDS011;30625;52.206;21.030;2023-12-20T02:37:00;14.20;;;8.93;;
44893;SDS011;30625;52.206;21.030;2023-12-20T02:39:26;14.10;;;9.52;;
44893;SDS011;30625;52.206;21.030;2023-12-20T02:41:51;11.13;;;7.47;;
44893;SDS011;30625;52.206;21.030;2023-12-20T02:44:18;14.35;;;7.57;;
44893;SDS011;30625;52.206;21.030;2023-12-20T02:46:44;13.00;;;8.20;;
44893;SDS011;30625;52.206;21.030;2023-12-20T02:49:12;13.18;;;6.68;;
44893;SDS011;30625;52.206;21.030;2023-12-20T02:51:38;13.70;;;6.90;;
44893;SDS011;30625;52.206;21.030;2023-12-20T02:54:04;10.82;;;5.80;;
44893;SDS011;30625;52.206;21.030;2023-12-20T02:58:56;11.98;;;4.72;;
44893;SDS011;30625;52.206;21.030;2023-12-20T03:01:22;11.48;;;5.68;;
44893;SDS011;30625;52.206;21.030;2023-12-20T03:03:48;11.45;;;5.80;;
44893;SDS011;30625;52.206;21.030;2023-12-20T03:06:16;13.10;;;6.00;;
44893;SDS011;30625;52.206;21.030;2023-12-20T03:08:43;8.43;;;4.90;;
44893;SDS011;30625;52.206;21.030;2023-12-20T03:11:10;7.10;;;3.92;;
44893;SDS011;30625;52.206;21.030;2023-12-20T03:13:36;8.57;;;4.93;;
44893;SDS011;30625;52.206;21.030;2023-12-20T03:16:07;7.80;;;4.82;;
44893;SDS011;30625;52.206;21.030;2023-12-20T03:18:37;7.30;;;4.03;;
44893;SDS011;30625;52.206;21.030;2023-12-20T03:21:04;5.47;;;3.65;;
44893;SDS011;30625;52.206;21.030;2023-12-20T03:23:30;8.95;;;4.95;;
44893;SDS011;30625;52.206;21.030;2023-12-20T03:25:57;6.50;;;4.07;;
44893;SDS011;30625;52.206;21.030;2023-12-20T03:28:23;11.45;;;4.88;;
44893;SDS011;30625;52.206;21.030;2023-12-20T03:30:49;9.45;;;4.10;;
44893;SDS011;30625;52.206;21.030;2023-12-20T03:33:14;7.47;;;4.22;;
44893;SDS011;30625;52.206;21.030;2023-12-20T03:35:40;7.13;;;4.40;;
44893;SDS011;30625;52.206;21.030;2023-12-20T03:38:06;7.50;;;3.67;;
44893;SDS011;30625;52.206;21.030;2023-12-20T03:40:32;8.77;;;4.53;;
44893;SDS011;30625;52.206;21.030;2023-12-20T03:42:58;7.50;;;3.72;;
44893;SDS011;30625;52.206;21.030;2023-12-20T03:45:23;6.90;;;3.80;;
44893;SDS011;30625;52.206;21.030;2023-12-20T03:47:49;4.88;;;3.65;;
44893;SDS011;30625;52.206;21.030;2023-12-20T03:50:15;7.13;;;4.32;;
44893;SDS011;30625;52.206;21.030;2023-12-20T03:52:41;6.20;;;3.95;;
44893;SDS011;30625;52.206;21.030;2023-12-20T03:55:06;6.32;;;3.50;;
44893;SDS011;30625;52.206;21.030;2023-12-20T03:57:32;7.13;;;4.35;;
44893;SDS011;30625;52.206;21.030;2023-12-20T03:59:58;7.82;;;4.07;;
44893;SDS011;30625;52.206;21.030;2023-12-20T04:02:24;6.75;;;4.25;;
44893;SDS011;30625;52.206;21.030;2023-12-20T04:04:50;9.10;;;4.47;;
44893;SDS011;30625;52.206;21.030;2023-12-20T04:07:16;7.57;;;4.45;;
44893;SDS011;30625;52.206;21.030;2023-12-20T04:09:42;8.63;;;5.15;;
44893;SDS011;30625;52.206;21.030;2023-12-20T04:12:07;6.95;;;4.38;;
44893;SDS011;30625;52.206;21.030;2023-12-20T04:14:33;6.20;;;4.45;;
44893;SDS011;30625;52.206;21.030;2023-12-20T04:16:59;8.57;;;5.00;;
44893;SDS011;30625;52.206;21.030;2023-12-20T04:19:25;11.02;;;5.82;;
44893;SDS011;30625;52.206;21.030;2023-12-20T04:21:52;6.50;;;4.70;;
44893;SDS011;30625;52.206;21.030;2023-12-20T04:24:17;9.85;;;5.15;;
44893;SDS011;30625;52.206;21.030;2023-12-20T04:26:43;11.73;;;6.03;;
44893;SDS011;30625;52.206;21.030;2023-12-20T04:29:09;11.18;;;7.07;;
44893;SDS011;30625;52.206;21.030;2023-12-20T04:31:34;11.68;;;6.65;;
44893;SDS011;30625;52.206;21.030;2023-12-20T04:34:00;11.40;;;7.03;;
44893;SDS011;30625;52.206;21.030;2023-12-20T04:36:25;12.15;;;7.35;;
44893;SDS011;30625;52.206;21.030;2023-12-20T04:38:53;12.55;;;7.60;;
44893;SDS011;30625;52.206;21.030;2023-12-20T04:41:19;12.68;;;7.43;;
44893;SDS011;30625;52.206;21.030;2023-12-20T04:43:44;11.48;;;7.28;;
44893;SDS011;30625;52.206;21.030;2023-12-20T04:46:10;13.70;;;8.18;;
44893;SDS011;30625;52.206;21.030;2023-12-20T04:48:38;15.38;;;7.93;;
44893;SDS011;30625;52.206;21.030;2023-12-20T04:51:04;14.38;;;8.15;;
44893;SDS011;30625;52.206;21.030;2023-12-20T04:53:31;12.13;;;6.78;;
44893;SDS011;30625;52.206;21.030;2023-12-20T04:55:56;12.02;;;7.10;;
44893;SDS011;30625;52.206;21.030;2023-12-20T04:58:22;13.27;;;7.10;;
44893;SDS011;30625;52.206;21.030;2023-12-20T05:00:47;11.98;;;6.75;;
44893;SDS011;30625;52.206;21.030;2023-12-20T05:03:13;10.45;;;6.68;;
44893;SDS011;30625;52.206;21.030;2023-12-20T05:05:39;12.48;;;7.82;;
44893;SDS011;30625;52.206;21.030;2023-12-20T05:08:04;13.55;;;8.02;;
44893;SDS011;30625;52.206;21.030;2023-12-20T05:10:30;13.27;;;7.85;;
44893;SDS011;30625;52.206;21.030;2023-12-20T05:12:56;14.20;;;8.25;;
44893;SDS011;30625;52.206;21.030;2023-12-20T05:15:22;13.57;;;7.57;;
44893;SDS011;30625;52.206;21.030;2023-12-20T05:17:47;13.45;;;7.90;;
44893;SDS011;30625;52.206;21.030;2023-12-20T05:20:13;13.05;;;7.05;;
44893;SDS011;30625;52.206;21.030;2023-12-20T05:22:40;15.10;;;8.07;;
44893;SDS011;30625;52.206;21.030;2023-12-20T05:25:06;13.35;;;7.90;;
44893;SDS011;30625;52.206;21.030;2023-12-20T05:27:33;14.20;;;9.23;;
44893;SDS011;30625;52.206;21.030;2023-12-20T05:30:00;15.35;;;9.32;;
44893;SDS011;30625;52.206;21.030;2023-12-20T05:32:26;14.30;;;8.63;;
44893;SDS011;30625;52.206;21.030;2023-12-20T05:34:51;15.18;;;7.40;;
44893;SDS011;30625;52.206;21.030;2023-12-20T05:37:17;16.38;;;7.68;;
44893;SDS011;30625;52.206;21.030;2023-12-20T05:39:43;16.08;;;8.80;;
44893;SDS011;30625;52.206;21.030;2023-12-20T05:42:08;11.52;;;8.57;;
44893;SDS011;30625;52.206;21.030;2023-12-20T05:44:35;16.15;;;8.60;;
44893;SDS011;30625;52.206;21.030;2023-12-20T05:47:02;13.48;;;8.40;;
44893;SDS011;30625;52.206;21.030;2023-12-20T05:49:29;13.60;;;8.23;;
44893;SDS011;30625;52.206;21.030;2023-12-20T05:51:55;18.35;;;9.93;;
44893;SDS011;30625;52.206;21.030;2023-12-20T05:54:21;14.27;;;8.27;;
44893;SDS011;30625;52.206;21.030;2023-12-20T05:56:48;15.80;;;9.32;;
44893;SDS011;30625;52.206;21.030;2023-12-20T05:59:14;14.02;;;7.68;;
44893;SDS011;30625;52.206;21.030;2023-12-20T06:01:39;15.25;;;9.20;;
44893;SDS011;30625;52.206;21.030;2023-12-20T06:04:05;15.25;;;7.95;;
44893;SDS011;30625;52.206;21.030;2023-12-20T06:06:30;17.52;;;9.00;;
44893;SDS011;30625;52.206;21.030;2023-12-20T06:08:59;12.20;;;8.30;;
44893;SDS011;30625;52.206;21.030;2023-12-20T06:11:25;29.38;;;9.77;;
44893;SDS011;30625;52.206;21.030;2023-12-20T06:13:51;12.88;;;7.85;;
44893;SDS011;30625;52.206;21.030;2023-12-20T06:16:18;21.73;;;8.20;;
44893;SDS011;30625;52.206;21.030;2023-12-20T06:18:44;11.80;;;7.53;;
44893;SDS011;30625;52.206;21.030;2023-12-20T06:21:12;13.95;;;8.80;;
44893;SDS011;30625;52.206;21.030;2023-12-20T06:23:41;12.93;;;8.32;;
44893;SDS011;30625;52.206;21.030;2023-12-20T06:26:07;16.38;;;9.88;;
44893;SDS011;30625;52.206;21.030;2023-12-20T06:28:32;18.73;;;9.75;;
44893;SDS011;30625;52.206;21.030;2023-12-20T06:30:59;15.10;;;8.48;;
44893;SDS011;30625;52.206;21.030;2023-12-20T06:33:25;16.80;;;9.88;;
44893;SDS011;30625;52.206;21.030;2023-12-20T06:35:51;19.88;;;11.65;;
44893;SDS011;30625;52.206;21.030;2023-12-20T06:38:17;19.05;;;9.13;;
44893;SDS011;30625;52.206;21.030;2023-12-20T06:40:44;16.33;;;10.50;;
44893;SDS011;30625;52.206;21.030;2023-12-20T06:43:09;18.40;;;10.57;;
44893;SDS011;30625;52.206;21.030;2023-12-20T06:45:35;17.52;;;9.63;;
44893;SDS011;30625;52.206;21.030;2023-12-20T06:48:01;17.85;;;10.00;;
44893;SDS011;30625;52.206;21.030;2023-12-20T06:50:27;16.10;;;9.23;;
44893;SDS011;30625;52.206;21.030;2023-12-20T06:52:52;19.80;;;10.07;;
44893;SDS011;30625;52.206;21.030;2023-12-20T06:55:18;15.07;;;8.25;;
44893;SDS011;30625;52.206;21.030;2023-12-20T06:57:44;15.18;;;8.85;;
44893;SDS011;30625;52.206;21.030;2023-12-20T07:00:10;15.68;;;8.82;;
44893;SDS011;30625;52.206;21.030;2023-12-20T07:02:38;13.98;;;7.78;;
44893;SDS011;30625;52.206;21.030;2023-12-20T07:05:05;14.52;;;8.95;;
44893;SDS011;30625;52.206;21.030;2023-12-20T07:07:31;16.00;;;9.13;;
44893;SDS011;30625;52.206;21.030;2023-12-20T07:09:57;13.15;;;8.27;;
44893;SDS011;30625;52.206;21.030;2023-12-20T07:12:23;17.38;;;9.73;;
44893;SDS011;30625;52.206;21.030;2023-12-20T07:14:48;13.95;;;8.75;;
44893;SDS011;30625;52.206;21.030;2023-12-20T07:17:14;17.13;;;8.57;;
44893;SDS011;30625;52.206;21.030;2023-12-20T07:19:41;14.05;;;8.15;;
44893;SDS011;30625;52.206;21.030;2023-12-20T07:22:07;16.83;;;10.18;;
44893;SDS011;30625;52.206;21.030;2023-12-20T07:24:33;13.07;;;8.15;;
44893;SDS011;30625;52.206;21.030;2023-12-20T07:26:59;15.55;;;7.88;;
44893;SDS011;30625;52.206;21.030;2023-12-20T07:29:26;22.52;;;9.13;;
44893;SDS011;30625;52.206;21.030;2023-12-20T07:31:52;15.85;;;9.32;;
44893;SDS011;30625;52.206;21.030;2023-12-20T07:34:19;13.25;;;9.40;;
44893;SDS011;30625;52.206;21.030;2023-12-20T07:36:46;17.42;;;8.85;;
44893;SDS011;30625;52.206;21.030;2023-12-20T07:39:12;17.10;;;8.10;;
44893;SDS011;30625;52.206;21.030;2023-12-20T07:41:38;15.93;;;8.60;;
44893;SDS011;30625;52.206;21.030;2023-12-20T07:44:04;13.80;;;8.27;;
44893;SDS011;30625;52.206;21.030;2023-12-20T07:46:33;16.77;;;9.38;;
44893;SDS011;30625;52.206;21.030;2023-12-20T07:48:58;21.10;;;8.88;;
44893;SDS011;30625;52.206;21.030;2023-12-20T07:53:51;14.00;;;7.53;;
44893;SDS011;30625;52.206;21.030;2023-12-20T07:56:17;11.80;;;7.88;;
44893;SDS011;30625;52.206;21.030;2023-12-20T07:58:44;14.13;;;8.63;;
44893;SDS011;30625;52.206;21.030;2023-12-20T08:01:18;13.73;;;7.53;;
44893;SDS011;30625;52.206;21.030;2023-12-20T08:03:45;13.80;;;7.75;;
44893;SDS011;30625;52.206;21.030;2023-12-20T08:08:37;13.60;;;7.57;;
44893;SDS011;30625;52.206;21.030;2023-12-20T08:11:02;14.88;;;7.35;;
44893;SDS011;30625;52.206;21.030;2023-12-20T08:13:28;13.27;;;7.40;;
44893;SDS011;30625;52.206;21.030;2023-12-20T08:18:21;15.07;;;8.27;;
44893;SDS011;30625;52.206;21.030;2023-12-20T08:20:47;14.38;;;8.50;;
44893;SDS011;30625;52.206;21.030;2023-12-20T08:23:14;15.10;;;7.32;;
44893;SDS011;30625;52.206;21.030;2023-12-20T08:25:40;11.23;;;6.57;;
44893;SDS011;30625;52.206;21.030;2023-12-20T08:28:06;11.85;;;7.55;;
44893;SDS011;30625;52.206;21.030;2023-12-20T08:30:33;13.10;;;8.20;;
44893;SDS011;30625;52.206;21.030;2023-12-20T08:33:01;12.73;;;7.78;;
44893;SDS011;30625;52.206;21.030;2023-12-20T08:35:28;13.43;;;6.97;;
44893;SDS011;30625;52.206;21.030;2023-12-20T08:37:53;11.63;;;7.68;;
44893;SDS011;30625;52.206;21.030;2023-12-20T08:40:19;13.90;;;7.18;;
44893;SDS011;30625;52.206;21.030;2023-12-20T08:42:45;13.07;;;7.30;;
44893;SDS011;30625;52.206;21.030;2023-12-20T08:45:11;12.27;;;6.65;;
44893;SDS011;30625;52.206;21.030;2023-12-20T08:47:36;15.48;;;8.50;;
44893;SDS011;30625;52.206;21.030;2023-12-20T08:50:02;13.48;;;6.72;;
44893;SDS011;30625;52.206;21.030;2023-12-20T08:52:28;16.55;;;7.15;;
44893;SDS011;30625;52.206;21.030;2023-12-20T08:54:54;8.80;;;5.43;;
44893;SDS011;30625;52.206;21.030;2023-12-20T08:57:21;9.27;;;5.43;;
44893;SDS011;30625;52.206;21.030;2023-12-20T08:59:52;10.30;;;6.22;;
44893;SDS011;30625;52.206;21.030;2023-12-20T09:02:20;7.97;;;5.10;;
44893;SDS011;30625;52.206;21.030;2023-12-20T09:04:47;11.02;;;5.70;;
44893;SDS011;30625;52.206;21.030;2023-12-20T09:07:23;10.25;;;6.00;;
44893;SDS011;30625;52.206;21.030;2023-12-20T09:09:49;8.75;;;6.20;;
44893;SDS011;30625;52.206;21.030;2023-12-20T09:12:15;11.02;;;5.90;;
44893;SDS011;30625;52.206;21.030;2023-12-20T09:14:40;9.63;;;5.93;;
44893;SDS011;30625;52.206;21.030;2023-12-20T09:17:06;12.23;;;6.00;;
44893;SDS011;30625;52.206;21.030;2023-12-20T09:19:34;12.45;;;6.65;;
44893;SDS011;30625;52.206;21.030;2023-12-20T09:21:59;10.50;;;6.00;;
44893;SDS011;30625;52.206;21.030;2023-12-20T09:26:53;10.48;;;5.63;;
44893;SDS011;30625;52.206;21.030;2023-12-20T09:29:18;9.48;;;5.88;;
44893;SDS011;30625;52.206;21.030;2023-12-20T09:31:44;8.55;;;4.82;;
44893;SDS011;30625;52.206;21.030;2023-12-20T09:34:11;8.60;;;5.75;;
44893;SDS011;30625;52.206;21.030;2023-12-20T09:36:38;9.65;;;5.80;;
44893;SDS011;30625;52.206;21.030;2023-12-20T09:39:07;10.30;;;5.18;;
44893;SDS011;30625;52.206;21.030;2023-12-20T09:41:34;9.48;;;4.88;;
44893;SDS011;30625;52.206;21.030;2023-12-20T09:44:02;8.05;;;5.07;;
44893;SDS011;30625;52.206;21.030;2023-12-20T09:46:30;8.90;;;5.65;;
44893;SDS011;30625;52.206;21.030;2023-12-20T09:48:59;9.23;;;5.32;;
44893;SDS011;30625;52.206;21.030;2023-12-20T09:51:27;11.38;;;5.60;;
44893;SDS011;30625;52.206;21.030;2023-12-20T09:53:54;7.07;;;4.95;;
44893;SDS011;30625;52.206;21.030;2023-12-20T09:56:21;9.98;;;6.15;;
44893;SDS011;30625;52.206;21.030;2023-12-20T09:58:47;12.60;;;5.03;;
44893;SDS011;30625;52.206;21.030;2023-12-20T10:01:13;10.00;;;5.93;;
44893;SDS011;30625;52.206;21.030;2023-12-20T10:03:41;9.63;;;6.10;;
44893;SDS011;30625;52.206;21.030;2023-12-20T10:06:07;8.15;;;4.97;;
44893;SDS011;30625;52.206;21.030;2023-12-20T10:08:35;9.60;;;6.25;;
44893;SDS011;30625;52.206;21.030;2023-12-20T10:11:00;9.35;;;5.00;;
44893;SDS011;30625;52.206;21.030;2023-12-20T10:13:27;8.88;;;5.05;;
44893;SDS011;30625;52.206;21.030;2023-12-20T10:15:54;10.35;;;6.35;;
44893;SDS011;30625;52.206;21.030;2023-12-20T10:18:22;21.00;;;6.20;;
44893;SDS011;30625;52.206;21.030;2023-12-20T10:20:48;11.90;;;6.78;;
44893;SDS011;30625;52.206;21.030;2023-12-20T10:23:15;9.20;;;5.20;;
44893;SDS011;30625;52.206;21.030;2023-12-20T10:25:47;10.13;;;5.70;;
44893;SDS011;30625;52.206;21.030;2023-12-20T10:28:23;11.18;;;6.78;;
44893;SDS011;30625;52.206;21.030;2023-12-20T10:30:52;8.60;;;5.60;;
44893;SDS011;30625;52.206;21.030;2023-12-20T10:33:27;9.48;;;5.45;;
44893;SDS011;30625;52.206;21.030;2023-12-20T10:35:55;10.15;;;5.30;;
44893;SDS011;30625;52.206;21.030;2023-12-20T10:38:21;10.27;;;5.68;;
44893;SDS011;30625;52.206;21.030;2023-12-20T10:40:47;9.63;;;5.55;;
44893;SDS011;30625;52.206;21.030;2023-12-20T10:43:14;10.57;;;6.00;;
44893;SDS011;30625;52.206;21.030;2023-12-20T10:45:43;15.07;;;5.72;;
44893;SDS011;30625;52.206;21.030;2023-12-20T10:48:10;8.95;;;5.78;;
44893;SDS011;30625;52.206;21.030;2023-12-20T10:50:37;9.70;;;5.57;;
44893;SDS011;30625;52.206;21.030;2023-12-20T10:53:06;7.55;;;5.18;;
44893;SDS011;30625;52.206;21.030;2023-12-20T10:55:32;9.90;;;5.35;;
44893;SDS011;30625;52.206;21.030;2023-12-20T10:58:02;9.95;;;5.85;;
44893;SDS011;30625;52.206;21.030;2023-12-20T11:00:33;10.70;;;5.50;;
44893;SDS011;30625;52.206;21.030;2023-12-20T11:03:08;9.68;;;5.68;;
44893;SDS011;30625;52.206;21.030;2023-12-20T11:05:38;9.50;;;5.68;;
44893;SDS011;30625;52.206;21.030;2023-12-20T11:11:13;8.27;;;5.97;;
44893;SDS011;30625;52.206;21.030;2023-12-20T11:13:44;10.77;;;5.55;;
44893;SDS011;30625;52.206;21.030;2023-12-20T11:16:19;11.18;;;5.45;;
44893;SDS011;30625;52.206;21.030;2023-12-20T11:18:46;9.50;;;5.55;;
44893;SDS011;30625;52.206;21.030;2023-12-20T11:21:15;10.43;;;5.80;;
44893;SDS011;30625;52.206;21.030;2023-12-20T11:23:43;8.38;;;5.38;;
44893;SDS011;30625;52.206;21.030;2023-12-20T11:26:09;9.07;;;6.00;;
44893;SDS011;30625;52.206;21.030;2023-12-20T11:28:36;9.00;;;4.90;;
44893;SDS011;30625;52.206;21.030;2023-12-20T11:31:04;8.18;;;5.13;;
44893;SDS011;30625;52.206;21.030;2023-12-20T11:33:37;6.68;;;4.22;;
44893;SDS011;30625;52.206;21.030;2023-12-20T11:36:15;8.05;;;4.38;;
44893;SDS011;30625;52.206;21.030;2023-12-20T11:38:56;7.53;;;4.97;;
44893;SDS011;30625;52.206;21.030;2023-12-20T11:41:26;9.95;;;5.75;;
44893;SDS011;30625;52.206;21.030;2023-12-20T11:43:55;9.88;;;6.10;;
44893;SDS011;30625;52.206;21.030;2023-12-20T11:46:21;8.07;;;4.45;;
44893;SDS011;30625;52.206;21.030;2023-12-20T11:48:47;9.32;;;5.28;;
44893;SDS011;30625;52.206;21.030;2023-12-20T11:51:13;9.30;;;4.82;;
44893;SDS011;30625;52.206;21.030;2023-12-20T11:53:42;8.75;;;5.53;;
44893;SDS011;30625;52.206;21.030;2023-12-20T11:56:08;8.75;;;5.18;;
44893;SDS011;30625;52.206;21.030;2023-12-20T12:01:00;8.98;;;5.53;;
44893;SDS011;30625;52.206;21.030;2023-12-20T12:03:29;9.13;;;5.80;;
44893;SDS011;30625;52.206;21.030;2023-12-20T12:05:55;9.93;;;6.05;;
44893;SDS011;30625;52.206;21.030;2023-12-20T12:08:21;11.50;;;5.57;;
44893;SDS011;30625;52.206;21.030;2023-12-20T12:10:47;8.13;;;5.20;;
44893;SDS011;30625;52.206;21.030;2023-12-20T12:13:13;13.07;;;7.07;;
44893;SDS011;30625;52.206;21.030;2023-12-20T12:15:41;15.52;;;6.40;;
44893;SDS011;30625;52.206;21.030;2023-12-20T12:18:09;9.25;;;6.18;;
44893;SDS011;30625;52.206;21.030;2023-12-20T12:20:40;12.18;;;6.47;;
44893;SDS011;30625;52.206;21.030;2023-12-20T12:23:07;8.93;;;5.53;;
44893;SDS011;30625;52.206;21.030;2023-12-20T12:25:36;11.10;;;6.50;;
44893;SDS011;30625;52.206;21.030;2023-12-20T12:28:02;10.75;;;5.88;;
44893;SDS011;30625;52.206;21.030;2023-12-20T12:32:55;10.80;;;6.63;;
44893;SDS011;30625;52.206;21.030;2023-12-20T12:35:21;9.18;;;5.15;;
44893;SDS011;30625;52.206;21.030;2023-12-20T12:40:14;12.50;;;7.10;;
44893;SDS011;30625;52.206;21.030;2023-12-20T12:42:42;11.45;;;5.65;;
44893;SDS011;30625;52.206;21.030;2023-12-20T12:45:10;15.18;;;7.50;;
44893;SDS011;30625;52.206;21.030;2023-12-20T12:47:36;14.13;;;7.32;;
44893;SDS011;30625;52.206;21.030;2023-12-20T12:50:03;11.93;;;5.32;;
44893;SDS011;30625;52.206;21.030;2023-12-20T12:54:58;16.98;;;8.27;;
44893;SDS011;30625;52.206;21.030;2023-12-20T12:57:25;15.15;;;8.05;;
44893;SDS011;30625;52.206;21.030;2023-12-20T12:59:52;12.27;;;7.72;;
44893;SDS011;30625;52.206;21.030;2023-12-20T13:02:19;12.73;;;8.18;;
44893;SDS011;30625;52.206;21.030;2023-12-20T13:04:48;12.85;;;7.28;;
44893;SDS011;30625;52.206;21.030;2023-12-20T13:07:14;13.73;;;7.82;;
44893;SDS011;30625;52.206;21.030;2023-12-20T13:09:41;13.57;;;7.88;;
44893;SDS011;30625;52.206;21.030;2023-12-20T13:12:07;12.95;;;7.43;;
44893;SDS011;30625;52.206;21.030;2023-12-20T13:14:33;13.40;;;8.15;;
44893;SDS011;30625;52.206;21.030;2023-12-20T13:17:00;13.95;;;7.70;;
44893;SDS011;30625;52.206;21.030;2023-12-20T13:19:26;11.95;;;6.55;;
44893;SDS011;30625;52.206;21.030;2023-12-20T13:21:53;11.88;;;7.18;;
44893;SDS011;30625;52.206;21.030;2023-12-20T13:24:20;15.27;;;9.07;;
44893;SDS011;30625;52.206;21.030;2023-12-20T13:26:47;10.85;;;6.38;;
44893;SDS011;30625;52.206;21.030;2023-12-20T13:29:13;15.18;;;6.90;;
44893;SDS011;30625;52.206;21.030;2023-12-20T13:31:39;9.35;;;6.00;;
44893;SDS011;30625;52.206;21.030;2023-12-20T13:34:06;11.35;;;5.78;;
44893;SDS011;30625;52.206;21.030;2023-12-20T13:36:33;11.88;;;6.55;;
44893;SDS011;30625;52.206;21.030;2023-12-20T13:38:58;11.55;;;6.10;;
44893;SDS011;30625;52.206;21.030;2023-12-20T13:41:24;11.55;;;5.43;;
44893;SDS011;30625;52.206;21.030;2023-12-20T13:43:50;10.63;;;6.28;;
44893;SDS011;30625;52.206;21.030;2023-12-20T13:46:15;12.57;;;6.45;;
44893;SDS011;30625;52.206;21.030;2023-12-20T13:51:08;11.82;;;6.35;;
44893;SDS011;30625;52.206;21.030;2023-12-20T13:53:34;12.50;;;6.43;;
44893;SDS011;30625;52.206;21.030;2023-12-20T13:55:59;12.98;;;11.65;;
44893;SDS011;30625;52.206;21.030;2023-12-20T13:58:25;10.82;;;5.50;;
44893;SDS011;30625;52.206;21.030;2023-12-20T14:00:51;8.98;;;6.03;;
44893;SDS011;30625;52.206;21.030;2023-12-20T14:03:17;12.68;;;6.30;;
44893;SDS011;30625;52.206;21.030;2023-12-20T14:05:44;12.55;;;6.43;;
44893;SDS011;30625;52.206;21.030;2023-12-20T14:08:10;10.23;;;5.75;;
44893;SDS011;30625;52.206;21.030;2023-12-20T14:10:36;10.05;;;6.47;;
44893;SDS011;30625;52.206;21.030;2023-12-20T14:13:03;11.55;;;6.22;;
44893;SDS011;30625;52.206;21.030;2023-12-20T14:15:30;14.45;;;6.22;;
44893;SDS011;30625;52.206;21.030;2023-12-20T14:18:02;13.50;;;6.10;;
44893;SDS011;30625;52.206;21.030;2023-12-20T14:20:31;8.60;;;5.88;;
44893;SDS011;30625;52.206;21.030;2023-12-20T14:23:02;13.15;;;7.60;;
44893;SDS011;30625;52.206;21.030;2023-12-20T14:25:28;10.57;;;6.38;;
44893;SDS011;30625;52.206;21.030;2023-12-20T14:27:56;8.80;;;6.88;;
44893;SDS011;30625;52.206;21.030;2023-12-20T14:30:21;9.52;;;6.80;;
44893;SDS011;30625;52.206;21.030;2023-12-20T14:32:47;12.50;;;6.40;;
44893;SDS011;30625;52.206;21.030;2023-12-20T14:35:20;10.93;;;6.10;;
44893;SDS011;30625;52.206;21.030;2023-12-20T14:37:47;12.70;;;7.38;;
44893;SDS011;30625;52.206;21.030;2023-12-20T14:40:14;9.70;;;5.50;;
44893;SDS011;30625;52.206;21.030;2023-12-20T14:42:44;10.32;;;6.57;;
44893;SDS011;30625;52.206;21.030;2023-12-20T14:45:29;9.50;;;6.10;;
44893;SDS011;30625;52.206;21.030;2023-12-20T14:47:54;10.57;;;7.32;;
44893;SDS011;30625;52.206;21.030;2023-12-20T14:50:20;8.98;;;4.45;;
44893;SDS011;30625;52.206;21.030;2023-12-20T14:52:47;9.55;;;4.93;;